Time;durP1;ratioP1;P1;durP2;ratioP2;P2;SDS_P1;SDS_P2;PMS_P1;PMS_P2;Temp;Humidity;BMP_temperature;BMP_pressure;BME280_temperature;BME280_humidity;BME280_pressure;Samples;Min_cycle;Max_cycle;Signal;HPM_P1;HPM_P2
2022/12/13 00:00:29;;;;;;;2.67;1.30;;;;;;;-0.74;71.51;100641.56;5147642;28;20086;-82
2022/12/13 00:02:59;;;;;;;0.68;0.68;;;;;;;-0.76;71.45;100645.81;5153665;28;20039;-82
2022/12/13 00:05:31;;;;;;;0.70;0.70;;;;;;;-0.76;71.01;100638.94;5162879;28;20026;-81
2022/12/13 00:08:02;;;;;;;2.67;2.47;;;;;;;-0.76;71.60;100641.53;5146140;28;20113;-80
2022/12/13 00:10:33;;;;;;;0.60;0.60;;;;;;;-0.75;71.34;100637.25;5159656;28;20065;-81
2022/12/13 00:13:03;;;;;;;1.20;1.20;;;;;;;-0.75;71.69;100632.09;5139319;28;20050;-80
2022/12/13 00:15:34;;;;;;;1.45;1.45;;;;;;;-0.80;70.78;100635.44;5136086;28;20686;-81
2022/12/13 00:18:04;;;;;;;1.95;1.85;;;;;;;-0.76;71.47;100641.53;5151869;28;20624;-82
2022/12/13 00:20:39;;;;;;;4.15;2.05;;;;;;;-0.75;71.28;100637.25;5151883;28;20085;-82
2022/12/13 00:23:10;;;;;;;1.80;1.70;;;;;;;-0.89;71.91;100631.84;5152078;28;20050;-81
2022/12/13 00:25:40;;;;;;;1.55;1.50;;;;;;;-0.83;71.42;100634.53;5152942;28;20030;-81
2022/12/13 00:28:11;;;;;;;1.13;1.13;;;;;;;-0.84;71.69;100641.41;5134555;28;21469;-81
2022/12/13 00:30:42;;;;;;;2.22;2.10;;;;;;;-0.81;70.88;100638.00;5167702;28;20065;-81
2022/12/13 00:33:12;;;;;;;11.13;2.58;;;;;;;-0.83;71.06;100639.69;5151452;28;20034;-81
2022/12/13 00:35:44;;;;;;;4.00;2.15;;;;;;;-0.86;70.78;100624.16;5152170;28;20900;-81
2022/12/13 00:38:15;;;;;;;1.05;1.05;;;;;;;-0.88;71.10;100631.88;5150874;28;20058;-81
2022/12/13 00:40:45;;;;;;;1.00;1.00;;;;;;;-0.84;70.46;100633.69;5152199;28;20045;-82
2022/12/13 00:43:17;;;;;;;0.73;0.73;;;;;;;-0.92;70.60;100629.22;5136273;28;20034;-81
2022/12/13 00:45:47;;;;;;;2.10;2.00;;;;;;;-1.00;71.30;100626.50;5138366;28;20039;-80
2022/12/13 00:48:18;;;;;;;2.83;1.48;;;;;;;-0.96;72.00;100624.03;5152849;28;20054;-81
2022/12/13 00:50:48;;;;;;;2.40;1.25;;;;;;;-0.97;71.54;100636.84;5167829;28;20022;-82
2022/12/13 00:53:19;;;;;;;1.95;1.85;;;;;;;-0.95;71.71;100622.28;5136914;28;20050;-82
2022/12/13 00:55:49;;;;;;;1.20;1.20;;;;;;;-0.93;71.29;100624.88;5148666;28;20643;-82
2022/12/13 00:58:20;;;;;;;1.83;1.75;;;;;;;-0.92;71.59;100630.09;5150768;28;20034;-82
2022/12/13 01:00:51;;;;;;;1.42;1.33;;;;;;;-0.93;71.14;100630.03;5143160;28;20489;-81
2022/12/13 01:03:24;;;;;;;0.43;0.43;;;;;;;-0.93;71.70;100632.63;5154081;28;20042;-81
2022/12/13 01:05:54;;;;;;;1.70;1.60;;;;;;;-0.91;71.54;100629.25;5149822;28;20815;-81
2022/12/13 01:08:29;;;;;;;3.40;2.28;;;;;;;-0.90;71.18;100619.81;5138946;28;20085;-82
2022/12/13 01:11:00;;;;;;;1.40;1.30;;;;;;;-0.93;70.82;100622.31;5151619;28;20041;-82
2022/12/13 01:13:31;;;;;;;3.58;2.47;;;;;;;-0.98;71.25;100625.69;5165249;28;20098;-83
2022/12/13 01:16:07;;;;;;;0.55;0.55;;;;;;;-0.96;70.55;100624.03;5133653;28;20105;-81
2022/12/13 01:18:40;;;;;;;1.42;1.33;;;;;;;-1.03;70.73;100624.72;5129822;28;20097;-81
2022/12/13 01:21:14;;;;;;;3.95;2.58;;;;;;;-1.01;70.71;100625.63;5148124;28;20022;-82
2022/12/13 01:23:48;;;;;;;1.23;1.23;;;;;;;-1.03;71.36;100627.28;5134469;28;20038;-82
2022/12/13 01:26:23;;;;;;;2.53;2.40;;;;;;;-1.02;71.36;100618.72;5149079;28;20076;-81
2022/12/13 01:28:53;;;;;;;1.33;1.30;;;;;;;-1.03;70.79;100626.44;5148135;28;20038;-82
2022/12/13 01:31:25;;;;;;;1.25;1.25;;;;;;;-1.07;71.17;100622.94;5147104;28;20026;-82
2022/12/13 01:33:56;;;;;;;2.35;2.15;;;;;;;-1.06;71.19;100624.69;5145162;28;20049;-81
2022/12/13 01:36:26;;;;;;;4.70;2.28;;;;;;;-1.09;71.47;100626.31;5147151;28;20026;-81
2022/12/13 01:38:57;;;;;;;0.60;0.60;;;;;;;-1.08;71.39;100623.78;5150703;28;20050;-82
2022/12/13 01:41:28;;;;;;;2.33;2.22;;;;;;;-1.08;71.04;100623.78;5158958;28;20046;-82
2022/12/13 01:44:02;;;;;;;2.53;2.10;;;;;;;-1.09;71.27;100623.75;5151142;28;20065;-81
2022/12/13 01:46:34;;;;;;;1.17;1.17;;;;;;;-1.06;70.85;100619.53;5156945;28;20109;-82
2022/12/13 01:49:16;;;;;;;0.82;0.82;;;;;;;-1.08;71.19;100620.34;5151020;28;20484;-81
2022/12/13 01:51:50;;;;;;;2.92;2.55;;;;;;;-1.10;71.01;100628.00;5140710;28;20365;-82
2022/12/13 01:54:30;;;;;;;0.75;0.75;;;;;;;-1.11;71.27;100628.84;5142714;28;20358;-82
2022/12/13 01:57:05;;;;;;;4.18;3.88;;;;;;;-1.11;71.37;100628.84;5148948;28;20040;-81
2022/12/13 01:59:40;;;;;;;0.70;0.70;;;;;;;-1.13;70.70;100631.41;5164563;28;20517;-82
2022/12/13 02:02:13;;;;;;;1.65;1.55;;;;;;;-1.09;70.94;100631.47;5144558;28;20041;-81
2022/12/13 02:04:51;;;;;;;2.30;2.20;;;;;;;-1.14;71.34;100629.66;5151388;28;20045;-82
2022/12/13 02:07:26;;;;;;;2.70;2.58;;;;;;;-1.20;71.58;100628.69;5149187;28;20026;-82
2022/12/13 02:10:00;;;;;;;1.75;1.52;;;;;;;-1.24;70.99;100637.19;5183060;28;20042;-82
2022/12/13 02:12:34;;;;;;;6.22;2.42;;;;;;;-1.23;71.19;100628.63;5171597;28;20030;-80
2022/12/13 02:15:14;;;;;;;2.17;1.10;;;;;;;-1.15;70.91;100624.50;5134691;28;20516;-81
2022/12/13 02:18:07;;;;;;;0.52;0.52;;;;;;;-1.24;71.45;100627.78;5155216;28;20022;-83
2022/12/13 02:20:47;;;;;;;6.65;4.25;;;;;;;-1.33;71.66;100636.16;5149655;28;20053;-82
2022/12/13 02:23:23;;;;;;;0.30;0.30;;;;;;;-1.24;70.99;100632.94;5131211;28;20069;-82
2022/12/13 02:26:16;;;;;;;0.30;0.30;;;;;;;-1.18;71.61;100635.63;5149089;28;20084;-82
2022/12/13 02:28:56;;;;;;;1.85;1.80;;;;;;;-1.25;71.29;100636.34;5152405;28;20767;-83
2022/12/13 02:31:46;;;;;;;0.40;0.40;;;;;;;-1.27;71.29;100632.84;5157696;28;20069;-82
2022/12/13 02:34:25;;;;;;;2.08;1.92;;;;;;;-1.26;71.47;100632.03;5145297;28;20613;-82
2022/12/13 02:37:39;;;;;;;1.52;1.52;;;;;;;-1.23;70.63;100628.63;5152220;28;20128;-81
2022/12/13 02:40:22;;;;;;;2.80;2.67;;;;;;;-1.27;71.11;100627.69;5158221;28;20045;-82
2022/12/13 02:43:21;;;;;;;1.40;1.30;;;;;;;-1.28;71.20;100626.81;5127038;28;20032;-81
2022/12/13 02:45:59;;;;;;;1.15;1.15;;;;;;;-1.28;71.17;100624.25;5143757;28;20034;-82
2022/12/13 02:48:38;;;;;;;2.03;1.92;;;;;;;-1.29;71.29;100630.25;5127842;28;20157;-83
2022/12/13 02:51:14;;;;;;;2.80;2.70;;;;;;;-1.25;70.71;100620.88;5168614;28;20057;-81
2022/12/13 02:53:50;;;;;;;1.63;1.55;;;;;;;-1.36;70.58;100618.06;5151788;28;20034;-82
2022/12/13 02:56:21;;;;;;;2.22;2.05;;;;;;;-1.36;70.77;100623.22;5130830;28;20054;-81
2022/12/13 02:58:56;;;;;;;1.70;1.65;;;;;;;-1.38;71.18;100616.31;5163629;28;20050;-80
2022/12/13 03:01:41;;;;;;;1.00;0.98;;;;;;;-1.33;70.82;100613.00;5180727;28;20445;-81
2022/12/13 03:04:23;;;;;;;0.85;0.85;;;;;;;-1.37;71.49;100613.78;5122317;28;20181;-80
2022/12/13 03:07:16;;;;;;;1.88;1.77;;;;;;;-1.48;71.59;100613.53;5158728;28;20045;-81
2022/12/13 03:09:49;;;;;;;1.35;1.08;;;;;;;-1.40;70.91;100610.28;5140202;28;20113;-81
2022/12/13 03:15:37;;;;;;;1.05;1.05;;;;;;;-1.38;71.28;100617.19;5172913;28;20213;-81
2022/12/13 03:18:18;;;;;;;0.70;0.70;;;;;;;-1.41;71.63;100614.56;5141014;28;20046;-82
2022/12/13 03:20:55;;;;;;;3.35;3.05;;;;;;;-1.44;71.93;100614.47;5149638;28;20030;-81
2022/12/13 03:23:29;;;;;;;4.68;1.52;;;;;;;-1.38;71.62;100613.75;5166709;28;20133;-82
2022/12/13 03:26:19;;;;;;;3.00;2.10;;;;;;;-1.36;71.60;100607.78;5145264;28;20402;-82
2022/12/13 03:28:54;;;;;;;2.40;2.25;;;;;;;-1.39;71.24;100612.00;5168168;28;20038;-82
2022/12/13 03:31:28;;;;;;;2.47;2.28;;;;;;;-1.38;71.44;100612.06;5145655;28;20058;-82
2022/12/13 03:33:58;;;;;;;1.50;1.50;;;;;;;-1.41;71.46;100611.97;5146622;28;20038;-82
2022/12/13 03:36:29;;;;;;;0.80;0.80;;;;;;;-1.46;72.03;100605.88;5133608;28;20085;-81
2022/12/13 03:39:00;;;;;;;1.15;1.15;;;;;;;-1.41;71.68;100601.69;5147884;28;20052;-82
2022/12/13 03:41:31;;;;;;;1.15;1.15;;;;;;;-1.46;71.75;100605.88;5137243;28;20018;-82
2022/12/13 03:44:04;;;;;;;0.85;0.85;;;;;;;-1.45;71.25;100602.47;5166407;28;20109;-81
2022/12/13 03:46:34;;;;;;;1.02;1.02;;;;;;;-1.50;71.42;100602.38;5186335;28;20069;-82
2022/12/13 03:49:05;;;;;;;1.17;1.15;;;;;;;-1.36;71.09;100592.34;5152768;28;20528;-81
2022/12/13 03:51:35;;;;;;;3.42;3.20;;;;;;;-1.46;71.70;100600.72;5147950;28;20021;-82
2022/12/13 03:54:06;;;;;;;0.60;0.60;;;;;;;-1.42;71.90;100597.38;5154724;28;20734;-82
2022/12/13 03:56:36;;;;;;;2.35;2.25;;;;;;;-1.43;71.40;100590.47;5135081;28;20709;-81
2022/12/13 03:59:07;;;;;;;1.65;1.58;;;;;;;-1.39;71.03;100592.28;5157832;28;20053;-82
2022/12/13 04:01:37;;;;;;;0.30;0.30;;;;;;;-1.44;70.87;100592.19;5161107;28;20037;-81
2022/12/13 04:04:08;;;;;;;4.75;3.17;;;;;;;-1.47;71.32;100594.69;5174019;28;20038;-81
2022/12/13 04:06:39;;;;;;;0.73;0.73;;;;;;;-1.49;71.19;100596.41;5152679;28;20022;-81
2022/12/13 04:09:09;;;;;;;1.40;1.40;;;;;;;-1.48;71.52;100586.97;5146500;28;20046;-81
2022/12/13 04:14:29;;;;;;;0.70;0.70;;;;;;;-1.64;70.88;100596.94;5140875;28;20050;-81
2022/12/13 04:16:59;;;;;;;2.53;2.13;;;;;;;-1.67;71.13;100590.88;5158039;28;20035;-82
2022/12/13 04:19:30;;;;;;;2.00;1.90;;;;;;;-1.59;71.07;100590.16;5167728;28;20046;-82
2022/12/13 04:22:03;;;;;;;0.95;0.95;;;;;;;-1.67;70.67;100581.44;5137213;28;20038;-81
2022/12/13 04:24:33;;;;;;;1.42;1.35;;;;;;;-1.64;71.44;100581.50;5154395;28;20717;-81
2022/12/13 04:27:04;;;;;;;0.85;0.85;;;;;;;-1.56;71.29;100585.94;5167847;28;20034;-81
2022/12/13 04:29:35;;;;;;;1.35;1.25;;;;;;;-1.76;71.52;100581.22;5149918;28;20657;-82
2022/12/13 04:32:05;;;;;;;3.20;3.00;;;;;;;-1.65;71.09;100584.91;5146212;28;20560;-81
2022/12/13 04:34:36;;;;;;;0.70;0.70;;;;;;;-1.62;70.96;100579.84;5147061;28;20170;-81
2022/12/13 04:37:07;;;;;;;0.80;0.80;;;;;;;-1.71;70.95;100581.34;5135153;28;20041;-81
2022/12/13 04:39:38;;;;;;;0.88;0.88;;;;;;;-1.69;71.00;100575.38;5145200;28;20062;-80
2022/12/13 04:42:09;;;;;;;0.57;0.57;;;;;;;-1.75;71.01;100573.56;5140767;28;20037;-81
2022/12/13 04:44:40;;;;;;;2.15;2.05;;;;;;;-1.80;70.17;100584.59;5133531;28;20366;-81
2022/12/13 04:47:10;;;;;;;0.63;0.63;;;;;;;-1.91;71.20;100582.66;5157806;28;20026;-81
2022/12/13 04:49:41;;;;;;;2.17;2.08;;;;;;;-2.01;70.82;100582.44;5150257;28;20084;-81
2022/12/13 04:52:11;;;;;;;1.58;1.48;;;;;;;-1.86;71.06;100579.31;5150922;28;20675;-82
2022/12/13 04:54:44;;;;;;;1.83;1.75;;;;;;;-1.81;71.12;100567.41;5149402;28;20057;-82
2022/12/13 04:57:15;;;;;;;2.03;1.85;;;;;;;-1.85;71.02;100571.63;5137094;28;20034;-82
2022/12/13 04:59:45;;;;;;;1.40;1.30;;;;;;;-1.79;71.21;100565.75;5174422;28;20034;-81
2022/12/13 05:02:16;;;;;;;2.55;2.45;;;;;;;-1.82;70.81;100566.56;5137148;28;20281;-81
2022/12/13 05:04:47;;;;;;;4.43;4.03;;;;;;;-1.80;71.06;100569.16;5137963;28;20042;-81
2022/12/13 05:07:17;;;;;;;1.85;1.75;;;;;;;-1.76;71.30;100568.38;5154606;28;20492;-81
2022/12/13 05:09:48;;;;;;;0.98;0.98;;;;;;;-1.75;70.54;100572.69;5151217;28;20057;-82
2022/12/13 05:12:19;;;;;;;3.35;2.70;;;;;;;-1.81;70.83;100567.41;5149750;28;20110;-81
2022/12/13 05:14:53;;;;;;;0.80;0.80;;;;;;;-1.70;71.28;100570.22;5171005;28;20042;-82
2022/12/13 05:17:23;;;;;;;1.25;1.25;;;;;;;-1.74;71.17;100559.00;5171241;28;20041;-81
2022/12/13 05:19:54;;;;;;;5.88;3.47;;;;;;;-1.71;70.65;100564.22;5170246;28;20074;-81
2022/12/13 05:22:25;;;;;;;3.92;3.70;;;;;;;-1.79;70.73;100558.03;5152371;28;20084;-80
2022/12/13 05:24:55;;;;;;;0.60;0.60;;;;;;;-1.80;70.49;100562.31;5165464;28;20077;-81
2022/12/13 05:27:26;;;;;;;0.45;0.45;;;;;;;-1.80;70.74;100559.72;5148450;28;20041;-81
2022/12/13 05:29:59;;;;;;;2.78;2.20;;;;;;;-2.06;70.13;100561.75;5145267;28;20047;-81
2022/12/13 05:32:37;;;;;;;1.55;1.52;;;;;;;-1.94;70.60;100549.13;5127505;28;20034;-80
2022/12/13 05:35:08;;;;;;;1.13;1.13;;;;;;;-1.92;70.09;100555.19;5138111;28;20066;-81
2022/12/13 05:37:39;;;;;;;1.23;1.13;;;;;;;-1.90;70.38;100556.09;5143918;28;20400;-82
2022/12/13 05:40:09;;;;;;;0.77;0.77;;;;;;;-1.96;69.09;100555.97;5146429;28;20038;-81
2022/12/13 05:42:40;;;;;;;0.60;0.60;;;;;;;-1.96;70.04;100552.53;5165409;28;20145;-81
2022/12/13 05:45:11;;;;;;;1.55;1.52;;;;;;;-2.04;70.42;100554.94;5155328;28;20050;-82
2022/12/13 05:47:41;;;;;;;1.05;1.05;;;;;;;-2.10;70.78;100554.78;5143429;28;20038;-81
2022/12/13 05:50:13;;;;;;;0.47;0.47;;;;;;;-2.24;70.83;100557.94;5156918;28;20050;-82
2022/12/13 05:52:44;;;;;;;0.50;0.50;;;;;;;-2.16;70.05;100564.94;5158079;28;20053;-82
2022/12/13 05:55:15;;;;;;;1.17;1.15;;;;;;;-2.43;70.87;100555.75;5136745;28;20061;-82
2022/12/13 05:57:45;;;;;;;2.50;2.40;;;;;;;-2.22;71.25;100560.53;5160115;28;20062;-80
2022/12/13 06:00:17;;;;;;;0.57;0.57;;;;;;;-2.06;70.37;100556.59;5160349;28;20043;-83
2022/12/13 06:02:48;;;;;;;2.85;2.63;;;;;;;-2.04;70.76;100554.06;5142106;28;20027;-80
2022/12/13 06:05:18;;;;;;;9.88;9.18;;;;;;;-2.14;70.57;100553.00;5140529;28;20100;-82
2022/12/13 06:07:48;;;;;;;4.32;4.13;;;;;;;-2.06;70.41;100554.88;5160996;28;20022;-81
2022/12/13 06:10:19;;;;;;;3.45;3.25;;;;;;;-2.01;70.99;100559.28;5158326;28;20053;-80
2022/12/13 06:12:49;;;;;;;3.50;2.33;;;;;;;-1.98;70.22;100565.34;5159537;28;20034;-80
2022/12/13 06:15:20;;;;;;;1.35;1.35;;;;;;;-2.18;70.13;100557.22;5159346;28;20042;-81
2022/12/13 06:17:50;;;;;;;1.73;1.63;;;;;;;-2.53;71.89;100554.69;5144979;28;20101;-81
2022/12/13 06:20:21;;;;;;;2.35;2.13;;;;;;;-2.42;71.88;100553.25;5150523;28;20098;-81
2022/12/13 06:22:52;;;;;;;1.63;1.63;;;;;;;-2.60;72.10;100561.38;5148116;28;20037;-81
2022/12/13 06:25:23;;;;;;;2.63;2.42;;;;;;;-2.47;71.80;100566.81;5148919;28;20433;-81
2022/12/13 06:28:01;;;;;;;2.20;2.00;;;;;;;-2.49;71.58;100560.75;5146939;28;20045;-83
2022/12/13 06:30:31;;;;;;;1.05;1.05;;;;;;;-2.32;71.78;100559.47;5125558;28;20053;-83
2022/12/13 06:33:02;;;;;;;2.47;2.28;;;;;;;-2.35;71.33;100561.09;5127649;28;20034;-82
2022/12/13 06:35:33;;;;;;;1.30;1.30;;;;;;;-2.44;71.34;100551.47;5143359;28;20080;-81
2022/12/13 06:38:04;;;;;;;0.50;0.50;;;;;;;-2.32;70.90;100554.31;5141037;28;20034;-82
2022/12/13 06:40:34;;;;;;;0.60;0.60;;;;;;;-2.40;71.18;100561.88;5134801;28;20042;-81
2022/12/13 06:43:05;;;;;;;1.73;1.35;;;;;;;-2.40;71.50;100560.97;5124709;28;20037;-81
2022/12/13 06:45:39;;;;;;;3.60;3.30;;;;;;;-2.56;72.07;100560.63;5149451;28;20061;-81
2022/12/13 06:48:10;;;;;;;0.68;0.68;;;;;;;-2.40;70.68;100555.84;5151654;28;22293;-80
2022/12/13 06:50:41;;;;;;;1.20;1.08;;;;;;;-2.54;72.01;100556.41;5128160;28;20851;-81
2022/12/13 06:53:11;;;;;;;3.17;1.88;;;;;;;-2.49;71.88;100555.63;5155329;28;20093;-80
2022/12/13 06:55:42;;;;;;;0.80;0.80;;;;;;;-2.45;72.09;100558.31;5154653;28;20030;-80
2022/12/13 06:58:12;;;;;;;0.25;0.25;;;;;;;-2.42;71.56;100549.78;5124700;28;20656;-80
2022/12/13 07:00:43;;;;;;;0.43;0.43;;;;;;;-2.39;71.38;100549.88;5142286;28;20038;-80
2022/12/13 07:03:14;;;;;;;0.95;0.95;;;;;;;-2.43;71.62;100546.38;5138066;28;20027;-80
2022/12/13 07:05:44;;;;;;;3.65;3.35;;;;;;;-2.41;71.05;100557.56;5126573;28;20171;-81
2022/12/13 07:08:15;;;;;;;1.60;1.50;;;;;;;-2.39;71.47;100563.59;5125508;28;20151;-81
2022/12/13 07:10:45;;;;;;;0.43;0.43;;;;;;;-2.32;71.23;100569.75;5125544;28;20030;-81
2022/12/13 07:13:16;;;;;;;1.98;1.88;;;;;;;-2.43;71.50;100572.06;5158457;28;20500;-81
2022/12/13 07:15:47;;;;;;;0.95;0.95;;;;;;;-2.39;71.33;100578.16;5148571;28;20034;-81
2022/12/13 07:18:17;;;;;;;7.28;2.00;;;;;;;-2.33;71.34;100568.00;5126673;28;20046;-81
2022/12/13 07:20:47;;;;;;;2.20;2.10;;;;;;;-2.40;71.05;100571.25;5147658;28;20046;-82
2022/12/13 07:23:18;;;;;;;1.95;1.83;;;;;;;-2.29;71.55;100569.81;5146424;28;20034;-81
2022/12/13 07:25:52;;;;;;;0.50;0.50;;;;;;;-2.28;70.72;100570.69;5133093;28;20026;-81
2022/12/13 07:28:23;;;;;;;1.52;1.42;;;;;;;-2.22;70.77;100571.69;5148488;28;20112;-81
2022/12/13 07:30:54;;;;;;;1.05;1.05;;;;;;;-2.19;70.54;100568.31;5146176;28;20042;-82
2022/12/13 07:33:25;;;;;;;2.15;2.00;;;;;;;-2.26;70.90;100567.31;5145104;28;20066;-81
2022/12/13 07:36:00;;;;;;;1.70;1.60;;;;;;;-2.26;70.98;100569.88;5147920;28;20044;-82
2022/12/13 07:38:32;;;;;;;1.52;1.50;;;;;;;-2.24;70.87;100568.22;5135582;28;20484;-82
2022/12/13 07:41:04;;;;;;;0.77;0.77;;;;;;;-2.30;71.05;100567.19;5130539;28;20030;-81
2022/12/13 07:43:35;;;;;;;7.07;2.33;;;;;;;-2.22;71.05;100558.84;5145396;28;20106;-82
2022/12/13 07:46:07;;;;;;;6.15;2.92;;;;;;;-2.32;71.05;100562.03;5149233;28;20030;-81
2022/12/13 07:48:37;;;;;;;1.83;1.73;;;;;;;-2.29;70.55;100567.25;5148948;28;20034;-82
2022/12/13 07:51:10;;;;;;;0.60;0.60;;;;;;;-2.32;71.02;100567.16;5161807;28;20034;-81
2022/12/13 07:53:41;;;;;;;4.22;3.90;;;;;;;-2.30;70.73;100562.06;5166947;28;20096;-82
2022/12/13 07:56:11;;;;;;;3.85;1.88;;;;;;;-2.39;70.98;100558.44;5137518;28;20038;-81
2022/12/13 07:58:42;;;;;;;1.15;1.15;;;;;;;-2.24;70.48;100565.66;5153852;28;20046;-81
2022/12/13 08:01:13;;;;;;;0.90;0.90;;;;;;;-2.29;70.91;100568.94;5153435;28;20014;-80
2022/12/13 08:03:46;;;;;;;2.10;2.00;;;;;;;-2.25;70.67;100574.19;5148413;28;20030;-81
2022/12/13 08:06:18;;;;;;;1.25;1.25;;;;;;;-2.22;70.11;100579.41;5150003;28;20041;-81
2022/12/13 08:08:50;;;;;;;2.35;0.85;;;;;;;-2.18;70.42;100582.91;5143938;28;20034;-80
2022/12/13 08:11:20;;;;;;;8.77;7.55;;;;;;;-2.18;70.47;100585.47;5149110;28;20073;-81
2022/12/13 08:13:52;;;;;;;6.13;5.70;;;;;;;-2.18;70.50;100579.47;5133172;28;20051;-79
2022/12/13 08:16:23;;;;;;;2.45;2.30;;;;;;;-2.33;70.50;100585.13;5173106;28;20034;-80
2022/12/13 08:18:53;;;;;;;1.02;1.02;;;;;;;-2.24;70.70;100583.63;5156911;28;20057;-79
2022/12/13 08:21:24;;;;;;;1.38;1.38;;;;;;;-2.37;70.33;100595.31;5147229;28;20022;-80
2022/12/13 08:23:54;;;;;;;1.27;1.17;;;;;;;-2.30;70.47;100598.03;5142089;28;20195;-80
2022/12/13 08:26:25;;;;;;;0.40;0.40;;;;;;;-2.22;70.42;100589.69;5129953;28;20034;-81
2022/12/13 08:28:55;;;;;;;1.85;1.75;;;;;;;-2.08;70.35;100597.72;5132573;28;20081;-80
2022/12/13 08:31:26;;;;;;;1.45;1.35;;;;;;;-2.47;70.28;100593.38;5129335;28;20134;-80
2022/12/13 08:33:56;;;;;;;0.47;0.47;;;;;;;-2.24;70.47;100596.50;5158978;28;20038;-81
2022/12/13 08:36:27;;;;;;;2.33;1.90;;;;;;;-2.30;70.27;100598.03;5159963;28;20109;-79
2022/12/13 08:39:01;;;;;;;4.53;2.67;;;;;;;-2.24;70.20;100591.34;5147207;28;20037;-83
2022/12/13 08:41:36;;;;;;;1.48;1.45;;;;;;;-2.18;70.43;100593.19;5157050;28;20019;-81
2022/12/13 08:44:06;;;;;;;3.00;2.87;;;;;;;-2.28;70.36;100592.13;5128544;28;20034;-81
2022/12/13 08:46:37;;;;;;;1.50;1.50;;;;;;;-2.13;70.14;100590.72;5144438;28;20035;-81
2022/12/13 08:49:10;;;;;;;1.67;1.60;;;;;;;-2.34;70.74;100586.81;5143878;28;20049;-81
2022/12/13 08:51:40;;;;;;;1.45;1.35;;;;;;;-2.29;70.30;100595.53;5159554;28;20029;-83
2022/12/13 08:54:11;;;;;;;0.35;0.35;;;;;;;-2.28;70.29;100592.13;5147265;28;20686;-82
2022/12/13 08:56:41;;;;;;;5.15;1.65;;;;;;;-2.13;70.49;100595.88;5144096;28;20038;-82
2022/12/13 08:59:12;;;;;;;1.60;1.50;;;;;;;-2.11;70.18;100599.34;5165662;28;20045;-81
2022/12/13 09:01:43;;;;;;;0.40;0.40;;;;;;;-2.09;70.46;100605.38;5151836;28;20034;-81
2022/12/13 09:04:24;;;;;;;0.75;0.75;;;;;;;-2.34;70.64;100607.38;5160150;28;20030;-81
2022/12/13 09:06:54;;;;;;;2.80;2.45;;;;;;;-2.33;70.42;100606.56;5145799;28;20038;-82
2022/12/13 09:09:27;;;;;;;1.98;1.88;;;;;;;-2.19;70.64;100608.59;5119838;28;20154;-82
2022/12/13 09:11:58;;;;;;;1.58;1.52;;;;;;;-2.24;70.47;100601.63;5128352;28;20037;-81
2022/12/13 09:14:31;;;;;;;2.17;2.03;;;;;;;-2.11;70.41;100600.22;5150468;28;20044;-81
2022/12/13 09:17:02;;;;;;;1.02;0.93;;;;;;;-2.19;70.51;100608.59;5167430;28;20109;-82
2022/12/13 09:19:32;;;;;;;1.85;1.77;;;;;;;-2.36;71.21;100603.94;5126730;28;20050;-82
2022/12/13 09:22:04;;;;;;;0.52;0.52;;;;;;;-2.28;70.94;100601.53;5126108;28;20050;-82
2022/12/13 09:24:34;;;;;;;1.10;1.10;;;;;;;-2.22;70.76;100599.97;5141445;28;20114;-81
2022/12/13 09:27:05;;;;;;;0.50;0.50;;;;;;;-2.12;71.04;100613.91;5136849;28;20203;-80
2022/12/13 09:29:37;;;;;;;0.30;0.30;;;;;;;-2.17;70.96;100609.47;5147931;28;20058;-81
2022/12/13 09:32:07;;;;;;;2.65;2.45;;;;;;;-2.22;71.21;100611.94;5157606;28;20057;-82
2022/12/13 09:34:38;;;;;;;1.02;1.02;;;;;;;-2.24;71.19;100603.34;5126429;28;20671;-81
2022/12/13 09:37:10;;;;;;;0.80;0.75;;;;;;;-2.32;71.49;100600.59;5140550;28;20034;-80
2022/12/13 09:39:41;;;;;;;1.90;1.80;;;;;;;-2.25;71.91;100596.47;5143625;28;20049;-81
2022/12/13 09:42:25;;;;;;;1.38;1.38;;;;;;;-2.23;70.60;100595.66;5144833;28;20129;-81
2022/12/13 09:45:02;;;;;;;1.48;1.38;;;;;;;-2.10;71.04;100596.81;5189667;28;20030;-83
2022/12/13 09:47:43;;;;;;;2.13;2.03;;;;;;;-2.08;70.84;100600.28;5178764;28;20006;-81
2022/12/13 09:50:13;;;;;;;17.67;8.65;;;;;;;-2.03;70.71;100610.69;5141199;28;20437;-83
2022/12/13 09:52:45;;;;;;;2.97;2.78;;;;;;;-2.03;70.50;100612.38;5159377;28;20031;-81
2022/12/13 09:55:27;;;;;;;1.85;1.65;;;;;;;-2.11;71.60;100607.94;5133251;28;20422;-81
2022/12/13 09:58:04;;;;;;;1.60;1.55;;;;;;;-2.14;71.60;100601.84;5140463;28;20034;-81
2022/12/13 10:00:35;;;;;;;1.67;1.63;;;;;;;-2.00;70.73;100600.44;5157096;28;20081;-82
2022/12/13 10:03:13;;;;;;;1.52;1.52;;;;;;;-1.93;71.19;100593.75;5142315;28;20030;-81
2022/12/13 10:05:50;;;;;;;2.15;1.95;;;;;;;-1.90;70.60;100589.53;5146458;28;20074;-81
2022/12/13 10:08:24;;;;;;;2.63;2.53;;;;;;;-1.71;70.70;100583.91;5174795;28;20088;-80
2022/12/13 10:10:54;;;;;;;0.85;0.85;;;;;;;-1.81;70.83;100580.28;5126149;28;20449;-81
2022/12/13 10:13:56;;;;;;;3.83;3.53;;;;;;;-1.86;70.68;100581.91;5128147;28;20030;-81
2022/12/13 10:16:43;;;;;;;3.13;2.92;;;;;;;-1.90;71.10;100576.69;5148453;28;20255;-81
2022/12/13 10:19:32;;;;;;;2.38;2.28;;;;;;;-1.96;71.19;100575.66;5161199;28;20030;-80
2022/12/13 10:22:08;;;;;;;0.90;0.90;;;;;;;-2.00;71.93;100572.16;5143209;28;20038;-80
2022/12/13 10:24:47;;;;;;;0.47;0.47;;;;;;;-1.87;71.05;100568.16;5129295;28;20064;-80
2022/12/13 10:27:33;;;;;;;8.88;2.67;;;;;;;-1.83;71.42;100554.53;5141732;28;20468;-81
2022/12/13 10:30:09;;;;;;;1.55;1.35;;;;;;;-1.63;71.41;100565.22;5144038;28;20066;-81
2022/12/13 10:32:56;;;;;;;1.75;1.65;;;;;;;-1.62;70.75;100559.25;5127596;28;20113;-81
2022/12/13 10:35:27;;;;;;;10.38;4.40;;;;;;;-1.61;71.42;100560.09;5143750;28;20598;-81
2022/12/13 10:38:22;;;;;;;1.45;1.45;;;;;;;-1.73;71.14;100555.59;5158761;28;20030;-81
2022/12/13 10:40:52;;;;;;;2.72;1.98;;;;;;;-1.53;71.29;100543.13;5135020;28;20034;-80
2022/12/13 10:43:25;;;;;;;1.48;1.45;;;;;;;-1.55;70.62;100544.78;5145783;28;20104;-80
2022/12/13 10:45:59;;;;;;;0.98;0.98;;;;;;;-1.40;70.83;100533.94;5146009;28;20590;-80
2022/12/13 10:48:59;;;;;;;0.80;0.80;;;;;;;-1.46;71.07;100536.38;5178998;28;20073;-81
2022/12/13 10:51:38;;;;;;;4.57;2.65;;;;;;;-1.42;71.16;100530.44;5136247;28;20048;-80
2022/12/13 10:54:25;;;;;;;0.30;0.30;;;;;;;-1.41;71.37;100527.03;5137462;28;20069;-82
2022/12/13 10:57:00;;;;;;;1.45;1.35;;;;;;;-1.35;71.16;100514.28;5125145;28;20031;-81
2022/12/13 10:59:34;;;;;;;0.70;0.70;;;;;;;-1.41;71.04;100513.31;5143853;28;20038;-81
2022/12/13 11:02:29;;;;;;;2.50;2.25;;;;;;;-1.32;71.88;100504.03;5146290;28;20054;-84
2022/12/13 11:05:28;;;;;;;1.42;1.40;;;;;;;-1.39;72.02;100503.91;5138083;28;20092;-81
2022/12/13 11:08:11;;;;;;;0.50;0.50;;;;;;;-1.25;71.14;100502.47;5166636;28;20034;-85
2022/12/13 11:10:42;;;;;;;6.55;4.55;;;;;;;-1.24;71.28;100505.88;5153727;28;20042;-82
2022/12/13 11:13:35;;;;;;;2.00;1.88;;;;;;;-1.12;71.13;100508.69;5159209;28;20042;-84
2022/12/13 11:16:24;;;;;;;0.32;0.32;;;;;;;-1.18;70.72;100500.84;5173933;28;20152;-83
2022/12/13 11:18:59;;;;;;;11.68;5.28;;;;;;;-1.11;71.13;100489.81;5170263;28;20042;-82
2022/12/13 11:21:33;;;;;;;3.90;3.00;;;;;;;-1.10;71.87;100488.97;5148297;28;20097;-81
2022/12/13 11:24:07;;;;;;;0.65;0.65;;;;;;;-1.10;71.91;100486.38;5154949;28;20089;-83
2022/12/13 11:26:41;;;;;;;3.70;2.45;;;;;;;-1.13;71.48;100481.22;5160998;28;20202;-85
2022/12/13 11:29:34;;;;;;;0.60;0.60;;;;;;;-1.08;71.40;100474.41;5143226;28;20034;-83
2022/12/13 11:32:36;;;;;;;0.77;0.77;;;;;;;-1.01;71.33;100485.69;5139099;28;20050;-85
2022/12/13 11:35:36;;;;;;;1.00;1.00;;;;;;;-0.96;71.34;100479.78;5124627;28;20050;-83
2022/12/13 11:38:27;;;;;;;1.00;1.00;;;;;;;-0.84;71.21;100468.81;5156261;28;20069;-86
2022/12/13 11:41:09;;;;;;;1.27;1.27;;;;;;;-0.78;71.19;100462.84;5162897;28;20014;-85
2022/12/13 11:44:15;;;;;;;1.85;1.67;;;;;;;-0.71;70.75;100459.56;5129107;28;20376;-82
2022/12/13 11:46:53;;;;;;;1.23;1.13;;;;;;;-0.76;71.35;100463.75;5164922;28;20030;-85
2022/12/13 11:49:32;;;;;;;1.00;1.00;;;;;;;-0.72;71.18;100457.81;5153237;28;20044;-85
2022/12/13 11:52:29;;;;;;;0.70;0.70;;;;;;;-0.60;70.92;100462.28;5133716;28;20042;-83
2022/12/13 11:55:08;;;;;;;6.15;1.85;;;;;;;-0.58;70.82;100450.28;5133663;28;20276;-84
2022/12/13 11:57:49;;;;;;;2.75;2.55;;;;;;;-0.52;70.83;100454.63;5129715;28;20049;-82
2022/12/13 12:00:44;;;;;;;0.82;0.82;;;;;;;-0.55;70.92;100444.31;5131865;28;20030;-81
2022/12/13 12:03:20;;;;;;;1.73;1.67;;;;;;;-0.40;70.70;100438.47;5164013;28;20537;-84